UHHH/KHV METAR and TAF weather

Enter ICAO airport designator
Station Type Date Time Source
UHHH METAR 2020/03/29 14:30 UTC NOAA

UHHH 291430Z 17003MPS CAVOK 03/M08 Q1010 R23L/090060 NOSIG RMK QFE751/1001


Station Type Date Time Source
UHHH Decoded METAR 2020/03/29 14:30 UTC NOAA

Habarovsk, Russia (UHHH) 48-31N 135-10E 76M
Mar 29, 2020 - 10:30 AM EDT / 2020.03.29 1430 UTC
Wind: from the S (170 degrees) at 7 MPH (6 KT):0
Visibility: greater than 7 mile(s):0
Temperature: 37 F (3 C)
Dew Point: 17 F (-8 C)
Relative Humidity: 44%
Pressure (altimeter): 29.83 in. Hg (1010 hPa)
ob: UHHH 291430Z 17003MPS CAVOK 03/M08 Q1010 R23L/090060 NOSIG RMK QFE751/1001
cycle: 14

Station Type Date Time Source
UHHH TAF 2020/03/29 15:21 UTC NOAA

TAF TAF UHHH 291351Z 2915/3021 20006MPS CAVOK
TEMPO 2918/3006 23007G12MPS

Example: see airport list